createdAt,value
2018-01-13T00:01:40.143Z,3.90
2018-01-13T00:04:08.511Z,3.90
2018-01-13T00:06:36.926Z,4.10
2018-01-13T00:09:04.629Z,4.10
2018-01-13T00:11:33.019Z,4.00
2018-01-13T00:14:01.407Z,4.00
2018-01-13T00:16:29.779Z,4.10
2018-01-13T00:18:58.147Z,4.10
2018-01-13T00:21:26.551Z,4.10
2018-01-13T00:23:54.928Z,4.10
2018-01-13T00:26:23.304Z,4.00
2018-01-13T00:28:51.694Z,4.00
2018-01-13T00:31:20.063Z,4.10
2018-01-13T00:33:48.436Z,4.20
2018-01-13T00:36:16.847Z,4.10
2018-01-13T00:38:45.216Z,4.10
2018-01-13T00:41:13.582Z,4.10
2018-01-13T00:43:42.012Z,4.10
2018-01-13T00:46:11.152Z,4.00
2018-01-13T00:48:39.526Z,4.00
2018-01-13T00:51:07.928Z,4.00
2018-01-13T00:53:36.309Z,4.00
2018-01-13T00:56:04.682Z,4.00
2018-01-13T00:58:33.079Z,4.00
2018-01-13T01:01:01.455Z,3.90
2018-01-13T01:03:29.822Z,4.00
2018-01-13T01:05:58.212Z,3.90
2018-01-13T01:08:26.582Z,3.90
2018-01-13T01:10:54.963Z,3.90
2018-01-13T01:13:23.363Z,3.80
2018-01-13T01:15:52.505Z,3.80
2018-01-13T01:18:20.880Z,3.80
2018-01-13T01:20:49.266Z,3.80
2018-01-13T01:23:17.635Z,3.80
2018-01-13T01:25:46.015Z,3.80
2018-01-13T01:28:14.399Z,3.90
2018-01-13T01:30:42.773Z,4.00
2018-01-13T01:33:11.140Z,4.00
2018-01-13T01:35:39.536Z,4.00
2018-01-13T01:38:07.925Z,4.00
2018-01-13T01:40:36.288Z,3.90
2018-01-13T01:43:04.676Z,3.90
2018-01-13T01:45:33.051Z,3.90
2018-01-13T01:48:01.416Z,3.90
2018-01-13T01:50:30.010Z,4.00
2018-01-13T01:52:58.384Z,4.00
2018-01-13T01:55:26.777Z,4.00
2018-01-13T01:57:55.168Z,4.00
2018-01-13T02:00:23.536Z,4.00
2018-01-13T02:02:51.895Z,4.00
2018-01-13T02:05:20.274Z,4.00
2018-01-13T02:07:48.634Z,3.90
2018-01-13T02:10:17.008Z,3.90
2018-01-13T02:12:45.396Z,3.90
2018-01-13T02:15:13.764Z,3.90
2018-01-13T02:17:42.128Z,3.90
2018-01-13T02:20:09.896Z,3.90
2018-01-13T02:22:38.275Z,3.70
2018-01-13T02:25:06.685Z,3.60
2018-01-13T02:27:35.080Z,3.40
2018-01-13T02:30:03.119Z,3.20
2018-01-13T02:32:31.523Z,3.00
2018-01-13T02:34:59.911Z,2.90
2018-01-13T02:37:28.292Z,2.80
2018-01-13T02:39:56.696Z,2.70
2018-01-13T02:42:25.864Z,2.60
2018-01-13T02:44:54.229Z,2.60
2018-01-13T02:47:22.602Z,2.50
2018-01-13T02:49:50.987Z,2.40
2018-01-13T02:52:19.359Z,2.30
2018-01-13T02:54:47.757Z,2.30
2018-01-13T02:57:16.142Z,2.20
2018-01-13T02:59:44.520Z,2.10
2018-01-13T03:02:12.910Z,2.10
2018-01-13T03:04:42.076Z,2.00
2018-01-13T03:07:10.447Z,2.00
2018-01-13T03:09:38.820Z,1.90
2018-01-13T03:12:07.217Z,1.90
2018-01-13T03:14:35.577Z,1.90
2018-01-13T03:17:03.633Z,1.70
2018-01-13T03:19:32.019Z,1.60
2018-01-13T03:22:00.389Z,1.60
2018-01-13T03:24:28.753Z,1.50
2018-01-13T03:26:57.146Z,1.40
2018-01-13T03:29:25.517Z,1.40
2018-01-13T03:31:53.896Z,1.30
2018-01-13T03:34:22.283Z,1.20
2018-01-13T03:36:50.652Z,1.20
2018-01-13T03:39:19.032Z,1.20
2018-01-13T03:41:47.421Z,1.20
2018-01-13T03:44:15.799Z,1.00
2018-01-13T03:46:44.180Z,1.00
2018-01-13T03:51:41.969Z,1.00
2018-01-13T03:54:10.351Z,1.00
2018-01-13T03:56:39.521Z,0.80
2018-01-13T03:59:07.891Z,0.70
2018-01-13T04:01:36.255Z,0.70
2018-01-13T04:04:05.415Z,0.60
2018-01-13T04:06:33.788Z,0.60
2018-01-13T04:09:02.156Z,0.60
2018-01-13T04:11:30.551Z,0.60
2018-01-13T04:13:58.993Z,0.50
2018-01-13T04:16:27.364Z,0.50
2018-01-13T04:18:55.759Z,0.50
2018-01-13T04:21:24.149Z,0.60
2018-01-13T04:23:52.529Z,0.60
2018-01-13T04:26:20.915Z,0.70
2018-01-13T04:28:49.328Z,0.70
2018-01-13T04:31:18.471Z,0.50
2018-01-13T04:33:46.864Z,0.50
2018-01-13T04:36:15.258Z,0.60
2018-01-13T04:38:43.622Z,0.60
2018-01-13T04:41:12.058Z,0.70
2018-01-13T04:43:41.031Z,0.70
2018-01-13T04:46:10.160Z,0.80
2018-01-13T04:48:38.568Z,0.70
2018-01-13T04:51:08.536Z,0.80
2018-01-13T04:53:36.960Z,0.80
2018-01-13T04:56:06.232Z,0.70
2018-01-13T04:58:34.605Z,0.70
2018-01-13T05:01:02.967Z,0.70
2018-01-13T05:03:32.129Z,1.00
2018-01-13T05:06:00.509Z,1.00
2018-01-13T05:08:28.912Z,1.10
2018-01-13T05:10:58.071Z,1.20
2018-01-13T05:13:26.448Z,1.10
2018-01-13T05:15:54.840Z,1.10
2018-01-13T05:18:23.241Z,0.90
2018-01-13T05:20:52.381Z,0.50
2018-01-13T05:23:20.745Z,0.50
2018-01-13T05:25:49.124Z,0.30
2018-01-13T05:28:17.504Z,0.30
2018-01-13T05:30:45.871Z,0.20
2018-01-13T05:33:14.258Z,0.20
2018-01-13T05:35:42.633Z,0.10
2018-01-13T05:38:10.988Z,0.10
2018-01-13T05:40:40.141Z,0.10
2018-01-13T05:43:08.524Z,0.10
2018-01-13T05:45:36.904Z,0.10
2018-01-13T05:48:05.295Z,0.20
2018-01-13T05:50:33.680Z,0.10
2018-01-13T05:53:02.042Z,0.00
2018-01-13T05:55:30.443Z,0.00
2018-01-13T05:58:00.163Z,-0.20
2018-01-13T06:00:29.135Z,-0.20
2018-01-13T06:02:57.539Z,-0.20
2018-01-13T06:05:26.699Z,-0.20
2018-01-13T06:07:55.071Z,-0.20
2018-01-13T06:10:23.476Z,0.00
2018-01-13T06:12:52.609Z,0.30
2018-01-13T06:15:20.997Z,0.30
2018-01-13T06:17:49.409Z,0.60
2018-01-13T06:20:17.788Z,0.80
2018-01-13T06:22:46.168Z,1.00
2018-01-13T06:25:14.566Z,1.20
2018-01-13T06:27:43.707Z,1.40
2018-01-13T06:30:12.080Z,1.40
2018-01-13T06:32:40.468Z,1.50
2018-01-13T06:35:08.844Z,1.70
2018-01-13T06:37:37.253Z,1.90
2018-01-13T06:40:05.648Z,2.00
2018-01-13T06:42:34.028Z,2.20
2018-01-13T06:45:03.178Z,2.30
2018-01-13T06:47:31.579Z,2.30
2018-01-13T06:49:59.957Z,2.40
2018-01-13T06:52:28.337Z,2.40
2018-01-13T06:54:56.747Z,2.40
2018-01-13T06:57:25.896Z,2.50
2018-01-13T06:59:54.452Z,2.50
2018-01-13T07:02:23.610Z,2.60
2018-01-13T07:04:51.996Z,2.60
2018-01-13T07:07:25.507Z,2.70
2018-01-13T07:09:53.890Z,2.70
2018-01-13T07:12:23.101Z,2.80
2018-01-13T07:14:51.469Z,2.80
2018-01-13T07:17:20.614Z,2.90
2018-01-13T07:19:49.024Z,2.80
2018-01-13T07:22:17.458Z,2.90
2018-01-13T07:24:45.828Z,2.90
2018-01-13T07:27:14.225Z,2.90
2018-01-13T07:29:42.600Z,2.90
2018-01-13T07:32:10.990Z,2.90
2018-01-13T07:34:39.400Z,3.00
2018-01-13T07:37:08.572Z,3.10
2018-01-13T07:39:36.967Z,3.00
2018-01-13T07:42:06.733Z,3.00
2018-01-13T07:44:35.152Z,3.10
2018-01-13T07:47:03.541Z,3.10
2018-01-13T07:49:31.934Z,3.10
2018-01-13T07:52:01.072Z,3.20
2018-01-13T07:54:29.448Z,3.10
2018-01-13T07:56:57.827Z,3.20
2018-01-13T07:59:26.215Z,3.30
2018-01-13T08:01:54.626Z,3.30
2018-01-13T08:04:23.795Z,3.30
2018-01-13T08:06:51.975Z,3.30
2018-01-13T08:09:20.161Z,3.40
2018-01-13T08:11:48.569Z,3.60
2018-01-13T08:14:17.716Z,3.80
2018-01-13T08:16:46.081Z,3.80
2018-01-13T08:19:14.483Z,4.00
2018-01-13T08:21:42.863Z,4.00
2018-01-13T08:24:11.236Z,4.10
2018-01-13T08:26:40.391Z,4.30
2018-01-13T08:29:08.786Z,4.20
2018-01-13T08:31:37.260Z,4.40
2018-01-13T08:34:05.651Z,4.40
2018-01-13T08:36:34.834Z,4.40
2018-01-13T08:39:03.197Z,4.50
2018-01-13T08:41:31.591Z,4.60
2018-01-13T08:43:59.964Z,4.60
2018-01-13T08:46:28.320Z,4.70
2018-01-13T08:48:57.477Z,4.70
2018-01-13T08:51:25.851Z,4.70
2018-01-13T08:53:54.346Z,4.80
2018-01-13T08:56:22.752Z,4.70
2018-01-13T08:58:51.704Z,4.60
2018-01-13T11:45:09.531Z,7.70
2018-01-13T11:47:38.743Z,7.80
2018-01-13T11:50:07.146Z,7.80
2018-01-13T11:52:35.536Z,7.80
2018-01-13T11:55:03.896Z,7.70
2018-01-13T11:57:32.277Z,7.90
2018-01-13T12:00:00.660Z,7.60
2018-01-13T12:02:29.141Z,7.50
2018-01-13T12:04:57.498Z,7.40
2018-01-13T12:07:25.971Z,7.30
2018-01-13T12:09:54.354Z,7.20
2018-01-13T12:12:22.763Z,7.00
2018-01-13T12:14:51.176Z,7.00
2018-01-13T12:17:19.619Z,6.70
2018-01-13T12:19:48.069Z,6.60
2018-01-13T12:22:16.469Z,6.20
2018-01-13T12:24:44.841Z,6.60
2018-01-13T12:27:13.256Z,7.20
2018-01-13T12:29:41.649Z,7.90
2018-01-13T12:32:10.089Z,8.30
2018-01-13T12:34:38.456Z,8.40
2018-01-13T12:37:07.143Z,8.70
2018-01-13T12:39:35.509Z,9.00
2018-01-13T12:42:04.129Z,9.40
2018-01-13T12:44:32.530Z,9.30
2018-01-13T12:47:00.908Z,9.10
2018-01-13T12:49:29.992Z,9.10
2018-01-13T12:51:58.597Z,9.10
2018-01-13T12:54:27.736Z,9.10
2018-01-13T12:56:56.099Z,9.10
2018-01-13T12:59:24.531Z,9.00
2018-01-13T13:01:52.561Z,9.00
2018-01-13T13:04:20.934Z,9.00
2018-01-13T13:06:49.320Z,9.10
2018-01-13T13:09:17.683Z,9.30
2018-01-13T13:11:46.071Z,9.30
2018-01-13T13:14:14.459Z,8.90
2018-01-13T13:16:42.818Z,8.70
2018-01-13T13:19:11.325Z,9.00
2018-01-13T13:21:40.658Z,9.20
2018-01-13T13:24:09.050Z,9.20
2018-01-13T13:26:38.194Z,8.50
2018-01-13T13:29:06.571Z,8.40
2018-01-13T13:31:34.945Z,8.10
2018-01-13T13:34:03.314Z,8.00
2018-01-13T13:36:31.801Z,8.00
2018-01-13T13:39:00.184Z,8.10
2018-01-13T13:41:28.555Z,7.90
2018-01-13T13:43:56.947Z,7.80
2018-01-13T13:46:25.318Z,7.70
2018-01-13T13:48:53.683Z,7.70
2018-01-13T13:51:21.770Z,7.60
2018-01-13T13:53:50.181Z,7.40
2018-01-13T13:56:18.553Z,7.00
2018-01-13T13:58:46.955Z,6.50
2018-01-13T14:01:28.507Z,6.30
2018-01-13T14:03:43.910Z,5.90
2018-01-13T14:06:12.358Z,5.30
2018-01-13T14:08:40.764Z,5.10
2018-01-13T14:11:09.132Z,4.90
2018-01-13T14:13:37.576Z,4.70
2018-01-13T14:16:05.963Z,4.80
2018-01-13T14:18:34.364Z,4.80
2018-01-13T14:21:02.776Z,4.70
2018-01-13T14:23:31.920Z,4.70
2018-01-13T14:26:00.376Z,4.70
2018-01-13T14:28:28.812Z,4.90
2018-01-13T14:30:57.499Z,5.00
2018-01-13T14:33:26.047Z,5.10
2018-01-13T14:35:54.494Z,5.10
2018-01-13T14:38:22.892Z,4.80
2018-01-13T14:40:51.261Z,4.70
2018-01-13T14:45:49.247Z,4.50
2018-01-13T14:48:17.746Z,4.50
2018-01-13T14:50:46.171Z,4.40
2018-01-13T14:53:14.567Z,4.40
2018-01-13T14:55:44.525Z,4.30
2018-01-13T14:58:12.936Z,4.30
2018-01-13T15:00:41.303Z,4.30
2018-01-13T15:03:09.677Z,4.20
2018-01-13T15:05:38.063Z,4.20
2018-01-13T15:08:06.425Z,4.20
2018-01-13T15:10:34.783Z,4.20
2018-01-13T15:13:03.180Z,4.20
2018-01-13T15:15:31.554Z,4.10
2018-01-13T15:17:59.964Z,4.10
2018-01-13T15:20:28.386Z,4.10
2018-01-13T15:22:56.752Z,4.10
2018-01-13T15:25:25.142Z,4.10
2018-01-13T15:27:53.542Z,4.20
2018-01-13T15:30:21.950Z,4.10
2018-01-13T15:32:50.380Z,3.90
2018-01-13T15:35:19.955Z,3.90
2018-01-13T15:37:49.091Z,3.80
2018-01-13T15:40:17.449Z,3.80
2018-01-13T15:42:45.843Z,3.80
2018-01-13T15:45:14.221Z,3.70
2018-01-13T15:47:42.612Z,3.70
2018-01-13T15:50:11.019Z,3.70
2018-01-13T15:52:39.399Z,3.70
2018-01-13T15:55:07.771Z,3.70
2018-01-13T15:57:36.187Z,3.50
2018-01-13T16:00:05.343Z,3.40
2018-01-13T16:02:33.707Z,3.40
2018-01-13T16:05:02.163Z,3.50
2018-01-13T16:07:30.786Z,3.50
2018-01-13T16:09:59.160Z,3.50
2018-01-13T16:12:36.956Z,3.50
2018-01-13T16:15:04.993Z,3.40
2018-01-13T16:20:20.577Z,3.30
2018-01-13T16:22:48.963Z,3.40
2018-01-13T16:25:17.323Z,3.40
2018-01-13T16:27:46.497Z,3.50
2018-01-13T16:30:14.901Z,3.40
2018-01-13T16:32:43.285Z,3.40
2018-01-13T16:35:11.667Z,3.40
2018-01-13T16:37:40.061Z,3.30
2018-01-13T16:40:08.419Z,3.30
2018-01-13T16:42:36.824Z,3.30
2018-01-13T16:45:05.221Z,3.30
2018-01-13T16:47:33.673Z,3.30
2018-01-13T16:50:02.069Z,3.20
2018-01-13T16:52:30.589Z,3.20
2018-01-13T16:54:59.119Z,3.20
2018-01-13T16:57:27.535Z,3.20
2018-01-13T16:59:56.716Z,3.20
2018-01-13T17:02:25.125Z,3.20
2018-01-13T17:04:53.544Z,3.10
2018-01-13T17:07:21.912Z,3.20
2018-01-13T17:09:50.323Z,3.20
2018-01-13T17:12:18.801Z,3.20
2018-01-13T17:14:47.218Z,3.30
2018-01-13T17:17:15.612Z,3.30
2018-01-13T17:19:44.859Z,3.30
2018-01-13T17:22:13.431Z,3.30
2018-01-13T17:24:41.913Z,3.30
2018-01-13T17:27:10.558Z,3.20
2018-01-13T17:29:39.807Z,3.10
2018-01-13T17:32:08.184Z,3.10
2018-01-13T17:34:36.589Z,3.10
2018-01-13T17:37:05.013Z,3.10
2018-01-13T17:39:33.405Z,3.20
2018-01-13T17:42:01.808Z,3.30
2018-01-13T17:44:30.191Z,3.40
2018-01-13T17:46:58.680Z,3.50
2018-01-13T17:49:27.066Z,3.40
2018-01-13T17:51:55.444Z,3.50
2018-01-13T17:54:23.811Z,3.50
2018-01-13T17:56:52.212Z,3.60
2018-01-13T17:59:20.603Z,3.60
2018-01-13T18:01:49.751Z,3.70
2018-01-13T18:04:18.154Z,3.70
2018-01-13T18:06:46.531Z,3.80
2018-01-13T18:09:14.932Z,3.80
2018-01-13T18:11:44.100Z,3.90
2018-01-13T18:14:12.467Z,4.00
2018-01-13T18:16:40.832Z,4.00
2018-01-13T18:19:09.259Z,4.00
2018-01-13T18:21:38.395Z,4.10
2018-01-13T18:24:06.764Z,4.10
2018-01-13T18:26:35.155Z,4.10
2018-01-13T18:29:03.517Z,4.10
2018-01-13T18:31:31.875Z,4.20
2018-01-13T18:34:01.031Z,4.20
2018-01-13T18:36:29.401Z,4.20
2018-01-13T18:38:57.768Z,4.20
2018-01-13T18:41:26.158Z,4.20
2018-01-13T18:43:54.604Z,4.20
2018-01-13T18:46:22.972Z,4.20
2018-01-13T18:48:52.118Z,4.30
2018-01-13T18:51:21.249Z,4.30
2018-01-13T18:53:50.380Z,4.20
2018-01-13T18:56:18.787Z,4.20
2018-01-13T18:58:47.184Z,4.20
2018-01-13T19:01:15.592Z,4.20
2018-01-13T19:03:44.788Z,4.30
2018-01-13T19:06:13.923Z,4.20
2018-01-13T19:08:43.111Z,4.20
2018-01-13T19:11:11.496Z,4.40
2018-01-13T19:13:39.866Z,4.40
2018-01-13T19:16:08.284Z,4.40
2018-01-13T19:18:36.695Z,4.40
2018-01-13T19:21:05.828Z,4.40
2018-01-13T19:23:34.192Z,4.40
2018-01-13T19:26:02.608Z,4.50
2018-01-13T19:28:31.943Z,4.50
2018-01-13T19:31:01.071Z,4.50
2018-01-13T19:33:29.531Z,4.50
2018-01-13T19:35:57.900Z,4.50
2018-01-13T19:38:27.036Z,4.50
2018-01-13T19:40:55.526Z,4.50
2018-01-13T19:43:23.892Z,4.60
2018-01-13T19:45:52.283Z,4.60
2018-01-13T19:48:21.807Z,4.50
2018-01-13T19:50:50.220Z,4.50
2018-01-13T19:53:19.356Z,4.60
2018-01-13T19:55:47.755Z,4.60
2018-01-13T19:58:16.135Z,4.60
2018-01-13T20:00:44.507Z,4.50
2018-01-13T20:03:12.997Z,4.50
2018-01-13T20:05:41.383Z,4.50
2018-01-13T20:08:09.766Z,4.50
2018-01-13T20:10:38.207Z,4.60
2018-01-13T20:13:06.565Z,4.60
2018-01-13T20:15:35.008Z,4.60
2018-01-13T20:18:04.272Z,4.50
2018-01-13T20:20:32.674Z,4.50
2018-01-13T20:23:01.850Z,4.60
2018-01-13T20:25:30.261Z,4.50
2018-01-13T20:27:59.524Z,4.60
2018-01-13T20:30:27.887Z,4.60
2018-01-13T20:32:56.315Z,4.60
2018-01-13T20:35:25.473Z,4.60
2018-01-13T20:37:54.617Z,4.50
2018-01-13T20:40:23.435Z,4.50
2018-01-13T20:42:52.033Z,4.50
2018-01-13T20:45:20.500Z,4.50
2018-01-13T20:47:49.279Z,4.50
2018-01-13T20:50:17.632Z,4.60
2018-01-13T20:52:46.868Z,4.60
2018-01-13T20:55:15.284Z,4.70
2018-01-13T20:57:43.661Z,4.60
2018-01-13T21:00:12.028Z,4.50
2018-01-13T21:02:40.532Z,4.50
2018-01-13T21:05:09.692Z,4.60
2018-01-13T21:07:38.162Z,4.60
2018-01-13T21:10:06.561Z,4.70
2018-01-13T21:12:36.060Z,4.60
2018-01-13T21:15:04.168Z,4.60
2018-01-13T21:17:32.886Z,4.60
2018-01-13T21:20:01.392Z,4.70
2018-01-13T21:22:29.796Z,4.60
2018-01-13T21:24:58.867Z,4.70
2018-01-13T21:27:27.421Z,4.60
2018-01-13T21:29:55.843Z,4.60
2018-01-13T21:32:24.230Z,4.60
2018-01-13T21:34:52.591Z,4.50
2018-01-13T21:37:20.964Z,4.50
2018-01-13T21:39:49.335Z,4.60
2018-01-13T21:42:17.711Z,4.60
2018-01-13T21:44:46.083Z,4.70
2018-01-13T21:47:15.066Z,4.60
2018-01-13T21:49:43.427Z,4.60
2018-01-13T21:52:12.572Z,4.60
2018-01-13T21:54:40.986Z,4.60
2018-01-13T21:59:46.185Z,4.60
2018-01-13T22:02:14.571Z,4.60
2018-01-13T22:04:42.959Z,4.60
2018-01-13T22:07:11.427Z,4.50
2018-01-13T22:09:39.802Z,4.50
2018-01-13T22:12:08.192Z,4.60
2018-01-13T22:14:36.576Z,4.60
2018-01-13T22:17:04.755Z,4.60
2018-01-13T22:19:33.123Z,4.60
2018-01-13T22:22:02.332Z,4.60
2018-01-13T22:24:34.172Z,4.60
2018-01-13T22:27:02.577Z,4.60
2018-01-13T22:29:30.983Z,4.50
2018-01-13T22:32:00.158Z,4.60
2018-01-13T22:34:28.556Z,4.60
2018-01-13T22:36:57.692Z,4.50
2018-01-13T22:39:26.059Z,4.50
2018-01-13T22:41:54.752Z,4.50
2018-01-13T22:44:23.131Z,4.60
2018-01-13T22:46:51.498Z,4.60
2018-01-13T22:49:20.675Z,4.60
2018-01-13T22:51:49.843Z,4.60
2018-01-13T22:54:18.215Z,4.60
2018-01-13T22:56:46.604Z,4.60
2018-01-13T22:59:14.968Z,4.70
2018-01-13T23:01:43.147Z,4.70
2018-01-13T23:04:11.553Z,4.60
2018-01-13T23:06:40.691Z,4.60
2018-01-13T23:09:09.086Z,4.70
2018-01-13T23:11:37.489Z,4.60
2018-01-13T23:14:05.878Z,4.70
2018-01-13T23:16:35.027Z,4.70
2018-01-13T23:19:03.438Z,4.60
2018-01-13T23:21:31.807Z,4.70
2018-01-13T23:24:00.191Z,4.60
2018-01-13T23:26:28.591Z,4.60
2018-01-13T23:28:57.739Z,4.70
2018-01-13T23:31:26.112Z,4.70
2018-01-13T23:33:54.498Z,4.60
2018-01-13T23:36:22.863Z,4.60
2018-01-13T23:38:51.222Z,4.70
2018-01-13T23:41:19.664Z,4.70
2018-01-13T23:43:48.240Z,4.70
2018-01-13T23:46:16.599Z,4.70
2018-01-13T23:48:44.979Z,4.70
2018-01-13T23:51:13.359Z,4.60
2018-01-13T23:53:41.726Z,4.60
2018-01-13T23:56:09.943Z,4.60
2018-01-13T23:58:38.319Z,4.50
